sensor_id;sensor_type;location;lat;lon;timestamp;pressure;altitude;pressure_sealevel;temperature;humidity
65359;BME280;52491;45.900;6.346;2023-04-25T00:01:22;93395.50;;;23.37;31.46
65359;BME280;52491;45.900;6.346;2023-04-25T00:03:48;93385.66;;;23.37;31.21
65359;BME280;52491;45.900;6.346;2023-04-25T00:06:14;93384.06;;;23.36;31.45
65359;BME280;52491;45.900;6.346;2023-04-25T00:08:40;93384.06;;;23.36;31.51
65359;BME280;52491;45.900;6.346;2023-04-25T00:11:05;93378.75;;;23.36;31.24
65359;BME280;52491;45.900;6.346;2023-04-25T00:13:31;93366.50;;;23.35;31.18
65359;BME280;52491;45.900;6.346;2023-04-25T00:15:57;93366.50;;;23.35;31.37
65359;BME280;52491;45.900;6.346;2023-04-25T00:18:23;93366.50;;;23.35;31.45
65359;BME280;52491;45.900;6.346;2023-04-25T00:20:49;93364.13;;;23.34;31.28
65359;BME280;52491;45.900;6.346;2023-04-25T00:23:15;93362.25;;;23.34;31.36
65359;BME280;52491;45.900;6.346;2023-04-25T00:25:50;93358.00;;;23.33;31.29
65359;BME280;52491;45.900;6.346;2023-04-25T00:28:16;93350.81;;;23.34;31.34
65359;BME280;52491;45.900;6.346;2023-04-25T00:30:42;93354.28;;;23.34;31.24
65359;BME280;52491;45.900;6.346;2023-04-25T00:33:08;93348.41;;;23.32;31.12
65359;BME280;52491;45.900;6.346;2023-04-25T00:35:34;93350.03;;;23.33;31.42
65359;BME280;52491;45.900;6.346;2023-04-25T00:38:00;93354.53;;;23.33;31.21
65359;BME280;52491;45.900;6.346;2023-04-25T00:40:26;93354.28;;;23.34;31.25
65359;BME280;52491;45.900;6.346;2023-04-25T00:42:52;93355.06;;;23.35;31.26
65359;BME280;52491;45.900;6.346;2023-04-25T00:45:19;93349.75;;;23.35;31.12
65359;BME280;52491;45.900;6.346;2023-04-25T00:47:45;93352.41;;;23.35;31.24
65359;BME280;52491;45.900;6.346;2023-04-25T00:50:11;93346.31;;;23.34;31.00
65359;BME280;52491;45.900;6.346;2023-04-25T00:52:42;93350.03;;;23.33;31.19
65359;BME280;52491;45.900;6.346;2023-04-25T00:55:08;93344.72;;;23.33;31.20
65359;BME280;52491;45.900;6.346;2023-04-25T00:57:35;93343.63;;;23.34;31.19
65359;BME280;52491;45.900;6.346;2023-04-25T01:00:01;93335.66;;;23.34;31.06
65359;BME280;52491;45.900;6.346;2023-04-25T01:02:27;93329.81;;;23.32;31.10
65359;BME280;52491;45.900;6.346;2023-04-25T01:04:53;93323.44;;;23.33;31.13
65359;BME280;52491;45.900;6.346;2023-04-25T01:07:18;93319.97;;;23.33;31.18
65359;BME280;52491;45.900;6.346;2023-04-25T01:09:44;93319.16;;;23.32;31.26
65359;BME280;52491;45.900;6.346;2023-04-25T01:12:10;93315.47;;;23.33;31.26
65359;BME280;52491;45.900;6.346;2023-04-25T01:14:36;93312.78;;;23.33;31.14
65359;BME280;52491;45.900;6.346;2023-04-25T01:17:02;93305.88;;;23.32;31.14
65359;BME280;52491;45.900;6.346;2023-04-25T01:19:27;93302.16;;;23.33;31.24
65359;BME280;52491;45.900;6.346;2023-04-25T01:21:53;93298.41;;;23.34;31.18
65359;BME280;52491;45.900;6.346;2023-04-25T01:24:19;93299.22;;;23.35;31.01
65359;BME280;52491;45.900;6.346;2023-04-25T01:26:45;93296.84;;;23.33;31.04
65359;BME280;52491;45.900;6.346;2023-04-25T01:29:17;93294.97;;;23.34;31.06
65359;BME280;52491;45.900;6.346;2023-04-25T01:31:43;93293.34;;;23.33;30.97
65359;BME280;52491;45.900;6.346;2023-04-25T01:34:10;93288.88;;;23.33;31.12
65359;BME280;52491;45.900;6.346;2023-04-25T01:36:36;93286.47;;;23.32;31.01
65359;BME280;52491;45.900;6.346;2023-04-25T01:39:02;93281.94;;;23.32;30.96
65359;BME280;52491;45.900;6.346;2023-04-25T01:41:28;93288.03;;;23.33;30.91
65359;BME280;52491;45.900;6.346;2023-04-25T01:43:54;93292.56;;;23.32;30.95
65359;BME280;52491;45.900;6.346;2023-04-25T01:46:20;93283.78;;;23.32;30.96
65359;BME280;52491;45.900;6.346;2023-04-25T01:48:46;93284.34;;;23.34;31.12
65359;BME280;52491;45.900;6.346;2023-04-25T01:51:12;93289.91;;;23.32;30.83
65359;BME280;52491;45.900;6.346;2023-04-25T01:53:38;93283.78;;;23.32;30.95
65359;BME280;52491;45.900;6.346;2023-04-25T01:56:04;93288.31;;;23.31;30.90
65359;BME280;52491;45.900;6.346;2023-04-25T01:58:30;93290.97;;;23.31;30.97
65359;BME280;52491;45.900;6.346;2023-04-25T02:00:56;93296.03;;;23.33;30.95
65359;BME280;52491;45.900;6.346;2023-04-25T02:03:21;93295.22;;;23.32;30.87
65359;BME280;52491;45.900;6.346;2023-04-25T02:05:47;93292.56;;;23.32;30.98
65359;BME280;52491;45.900;6.346;2023-04-25T02:08:13;93299.50;;;23.33;30.92
65359;BME280;52491;45.900;6.346;2023-04-25T02:10:39;93301.09;;;23.34;30.81
65359;BME280;52491;45.900;6.346;2023-04-25T02:13:04;93298.41;;;23.34;30.95
65359;BME280;52491;45.900;6.346;2023-04-25T02:15:30;93293.09;;;23.34;30.72
65359;BME280;52491;45.900;6.346;2023-04-25T02:17:56;93299.22;;;23.35;30.95
65359;BME280;52491;45.900;6.346;2023-04-25T02:20:24;93305.31;;;23.35;30.75
65359;BME280;52491;45.900;6.346;2023-04-25T02:22:49;93296.84;;;23.33;30.84
65359;BME280;52491;45.900;6.346;2023-04-25T02:25:15;93285.38;;;23.33;30.78
65359;BME280;52491;45.900;6.346;2023-04-25T02:27:45;93281.94;;;23.32;30.86
65359;BME280;52491;45.900;6.346;2023-04-25T02:30:11;93286.19;;;23.33;30.74
65359;BME280;52491;45.900;6.346;2023-04-25T02:32:38;93280.06;;;23.33;30.86
65359;BME280;52491;45.900;6.346;2023-04-25T02:35:04;93280.06;;;23.33;30.87
65359;BME280;52491;45.900;6.346;2023-04-25T02:37:33;93284.34;;;23.34;30.84
65359;BME280;52491;45.900;6.346;2023-04-25T02:39:59;93276.34;;;23.34;30.86
65359;BME280;52491;45.900;6.346;2023-04-25T02:42:26;93275.56;;;23.33;30.78
65359;BME280;52491;45.900;6.346;2023-04-25T02:44:52;93278.47;;;23.32;30.78
65359;BME280;52491;45.900;6.346;2023-04-25T02:47:18;93275.56;;;23.33;30.86
65359;BME280;52491;45.900;6.346;2023-04-25T02:49:43;93274.75;;;23.33;30.84
65359;BME280;52491;45.900;6.346;2023-04-25T02:52:09;93274.50;;;23.29;30.84
65359;BME280;52491;45.900;6.346;2023-04-25T02:54:34;93276.09;;;23.30;30.76
65359;BME280;52491;45.900;6.346;2023-04-25T02:57:00;93269.19;;;23.29;30.90
65359;BME280;52491;45.900;6.346;2023-04-25T02:59:28;93268.13;;;23.30;30.91
65359;BME280;52491;45.900;6.346;2023-04-25T03:01:53;93269.97;;;23.30;30.77
65359;BME280;52491;45.900;6.346;2023-04-25T03:04:19;93277.94;;;23.30;30.82
65359;BME280;52491;45.900;6.346;2023-04-25T03:06:46;93272.63;;;23.30;30.97
65359;BME280;52491;45.900;6.346;2023-04-25T03:09:12;93276.09;;;23.30;30.84
65359;BME280;52491;45.900;6.346;2023-04-25T03:11:38;93281.44;;;23.30;30.81
65359;BME280;52491;45.900;6.346;2023-04-25T03:14:04;93287.53;;;23.31;31.01
65359;BME280;52491;45.900;6.346;2023-04-25T03:16:30;93274.50;;;23.29;30.74
65359;BME280;52491;45.900;6.346;2023-04-25T03:18:56;93279.03;;;23.29;30.79
65359;BME280;52491;45.900;6.346;2023-04-25T03:21:22;93276.38;;;23.29;30.88
65359;BME280;52491;45.900;6.346;2023-04-25T03:23:47;93270.25;;;23.28;30.91
65359;BME280;52491;45.900;6.346;2023-04-25T03:26:13;93270.25;;;23.28;30.96
65359;BME280;52491;45.900;6.346;2023-04-25T03:28:38;93272.13;;;23.28;30.94
65359;BME280;52491;45.900;6.346;2023-04-25T03:31:05;93272.91;;;23.28;30.97
65359;BME280;52491;45.900;6.346;2023-04-25T03:33:31;93266.81;;;23.28;30.90
65359;BME280;52491;45.900;6.346;2023-04-25T03:35:56;93271.84;;;23.29;30.85
65359;BME280;52491;45.900;6.346;2023-04-25T03:38:22;93269.19;;;23.29;31.14
65359;BME280;52491;45.900;6.346;2023-04-25T03:40:49;93273.44;;;23.30;30.91
65359;BME280;52491;45.900;6.346;2023-04-25T03:43:16;93267.31;;;23.30;30.98
65359;BME280;52491;45.900;6.346;2023-04-25T03:45:41;93259.31;;;23.30;31.03
65359;BME280;52491;45.900;6.346;2023-04-25T03:48:07;93267.31;;;23.30;30.71
65359;BME280;52491;45.900;6.346;2023-04-25T03:50:33;93259.84;;;23.32;30.81
65359;BME280;52491;45.900;6.346;2023-04-25T03:52:58;93266.25;;;23.31;30.95
65359;BME280;52491;45.900;6.346;2023-04-25T03:55:24;93264.38;;;23.31;30.82
65359;BME280;52491;45.900;6.346;2023-04-25T03:57:50;93263.59;;;23.31;30.97
65359;BME280;52491;45.900;6.346;2023-04-25T04:00:15;93271.56;;;23.31;30.82
65359;BME280;52491;45.900;6.346;2023-04-25T04:02:42;93273.16;;;23.32;30.86
65359;BME280;52491;45.900;6.346;2023-04-25T04:05:07;93275.03;;;23.31;30.81
65359;BME280;52491;45.900;6.346;2023-04-25T04:07:33;93295.50;;;23.31;30.80
65359;BME280;52491;45.900;6.346;2023-04-25T04:10:01;93289.41;;;23.30;30.75
65359;BME280;52491;45.900;6.346;2023-04-25T04:12:27;93280.34;;;23.31;31.01
65359;BME280;52491;45.900;6.346;2023-04-25T04:14:53;93283.78;;;23.32;30.78
65359;BME280;52491;45.900;6.346;2023-04-25T04:17:18;93285.66;;;23.31;30.91
65359;BME280;52491;45.900;6.346;2023-04-25T04:19:44;93275.81;;;23.32;30.62
65359;BME280;52491;45.900;6.346;2023-04-25T04:22:09;93288.31;;;23.31;31.01
65359;BME280;52491;45.900;6.346;2023-04-25T04:24:35;93279.56;;;23.31;30.99
65359;BME280;52491;45.900;6.346;2023-04-25T04:27:01;93284.88;;;23.31;31.04
65359;BME280;52491;45.900;6.346;2023-04-25T04:29:26;93275.03;;;23.31;31.08
65359;BME280;52491;45.900;6.346;2023-04-25T04:31:52;93272.63;;;23.30;30.91
65359;BME280;52491;45.900;6.346;2023-04-25T04:34:18;93279.56;;;23.31;30.99
65359;BME280;52491;45.900;6.346;2023-04-25T04:36:44;93281.13;;;23.32;30.84
65359;BME280;52491;45.900;6.346;2023-04-25T04:39:12;93275.03;;;23.31;30.75
65359;BME280;52491;45.900;6.346;2023-04-25T04:41:38;93277.69;;;23.31;30.91
65359;BME280;52491;45.900;6.346;2023-04-25T04:44:04;93275.03;;;23.31;30.93
65359;BME280;52491;45.900;6.346;2023-04-25T04:46:32;93284.59;;;23.32;30.81
65359;BME280;52491;45.900;6.346;2023-04-25T04:49:04;93291.53;;;23.33;30.92
65359;BME280;52491;45.900;6.346;2023-04-25T04:51:30;93287.00;;;23.34;31.08
65359;BME280;52491;45.900;6.346;2023-04-25T04:53:56;93288.88;;;23.33;31.02
65359;BME280;52491;45.900;6.346;2023-04-25T04:56:24;93288.56;;;23.35;30.90
65359;BME280;52491;45.900;6.346;2023-04-25T04:58:51;93295.75;;;23.34;31.05
65359;BME280;52491;45.900;6.346;2023-04-25T05:01:17;93303.75;;;23.34;30.97
65359;BME280;52491;45.900;6.346;2023-04-25T05:03:43;93304.53;;;23.35;31.12
65359;BME280;52491;45.900;6.346;2023-04-25T05:06:08;93303.75;;;23.34;31.29
65359;BME280;52491;45.900;6.346;2023-04-25T05:08:34;93321.56;;;23.34;31.23
65359;BME280;52491;45.900;6.346;2023-04-25T05:11:00;93312.50;;;23.35;31.24
65359;BME280;52491;45.900;6.346;2023-04-25T05:13:25;93312.50;;;23.35;31.30
65359;BME280;52491;45.900;6.346;2023-04-25T05:15:51;93316.78;;;23.36;31.29
65359;BME280;52491;45.900;6.346;2023-04-25T05:18:17;93326.59;;;23.35;31.47
65359;BME280;52491;45.900;6.346;2023-04-25T05:20:42;93336.19;;;23.36;31.58
65359;BME280;52491;45.900;6.346;2023-04-25T05:23:08;93323.69;;;23.37;31.59
65359;BME280;52491;45.900;6.346;2023-04-25T05:25:33;93330.09;;;23.36;31.50
65359;BME280;52491;45.900;6.346;2023-04-25T05:27:59;93330.09;;;23.36;31.64
65359;BME280;52491;45.900;6.346;2023-04-25T05:30:25;93330.59;;;23.38;31.57
65359;BME280;52491;45.900;6.346;2023-04-25T05:32:50;93330.88;;;23.36;31.71
65359;BME280;52491;45.900;6.346;2023-04-25T05:35:16;93332.22;;;23.34;31.86
65359;BME280;52491;45.900;6.346;2023-04-25T05:37:41;93334.59;;;23.35;31.69
65359;BME280;52491;45.900;6.346;2023-04-25T05:40:08;93337.25;;;23.35;31.86
65359;BME280;52491;45.900;6.346;2023-04-25T05:42:34;93337.78;;;23.37;32.01
65359;BME280;52491;45.900;6.346;2023-04-25T05:44:59;93351.63;;;23.39;31.88
65359;BME280;52491;45.900;6.346;2023-04-25T05:47:26;93359.84;;;23.38;32.02
65359;BME280;52491;45.900;6.346;2023-04-25T05:49:51;93370.25;;;23.39;32.15
65359;BME280;52491;45.900;6.346;2023-04-25T05:52:18;93364.63;;;23.41;32.29
65359;BME280;52491;45.900;6.346;2023-04-25T05:54:43;93371.03;;;23.40;32.14
65359;BME280;52491;45.900;6.346;2023-04-25T05:57:21;93365.44;;;23.41;32.23
65359;BME280;52491;45.900;6.346;2023-04-25T05:59:47;93367.28;;;23.41;32.00
65359;BME280;52491;45.900;6.346;2023-04-25T06:02:13;93361.97;;;23.41;32.06
65359;BME280;52491;45.900;6.346;2023-04-25T06:04:38;93359.31;;;23.41;32.06
65359;BME280;52491;45.900;6.346;2023-04-25T06:07:04;93356.66;;;23.41;32.00
65359;BME280;52491;45.900;6.346;2023-04-25T06:09:30;93361.97;;;23.41;32.14
65359;BME280;52491;45.900;6.346;2023-04-25T06:11:55;93364.63;;;23.41;32.08
65359;BME280;52491;45.900;6.346;2023-04-25T06:14:21;93365.44;;;23.41;32.25
65359;BME280;52491;45.900;6.346;2023-04-25T06:16:47;93368.91;;;23.42;32.26
65359;BME280;52491;45.900;6.346;2023-04-25T06:19:12;93367.03;;;23.42;32.34
65359;BME280;52491;45.900;6.346;2023-04-25T06:21:38;93368.91;;;23.42;32.31
65359;BME280;52491;45.900;6.346;2023-04-25T06:24:03;93365.16;;;23.43;32.45
65359;BME280;52491;45.900;6.346;2023-04-25T06:26:29;93361.44;;;23.44;32.44
65359;BME280;52491;45.900;6.346;2023-04-25T06:28:55;93359.84;;;23.43;32.42
65359;BME280;52491;45.900;6.346;2023-04-25T06:31:20;93359.59;;;23.44;32.57
65359;BME280;52491;45.900;6.346;2023-04-25T06:33:46;93362.25;;;23.44;32.21
65359;BME280;52491;45.900;6.346;2023-04-25T06:36:13;93357.97;;;23.38;32.13
65359;BME280;52491;45.900;6.346;2023-04-25T06:38:39;93355.59;;;23.37;32.17
65359;BME280;52491;45.900;6.346;2023-04-25T06:41:04;93357.19;;;23.38;32.14
65359;BME280;52491;45.900;6.346;2023-04-25T06:43:30;93356.94;;;23.39;32.25
65359;BME280;52491;45.900;6.346;2023-04-25T06:45:59;93364.13;;;23.39;32.26
65359;BME280;52491;45.900;6.346;2023-04-25T06:48:26;93375.56;;;23.39;32.31
65359;BME280;52491;45.900;6.346;2023-04-25T06:50:52;93382.47;;;23.40;32.17
65359;BME280;52491;45.900;6.346;2023-04-25T06:53:17;93379.81;;;23.40;32.28
65359;BME280;52491;45.900;6.346;2023-04-25T06:55:44;93378.75;;;23.41;32.14
65359;BME280;52491;45.900;6.346;2023-04-25T06:58:09;93386.75;;;23.41;32.36
65359;BME280;52491;45.900;6.346;2023-04-25T07:00:35;93382.47;;;23.40;32.24
65359;BME280;52491;45.900;6.346;2023-04-25T07:03:01;93382.47;;;23.40;32.37
65359;BME280;52491;45.900;6.346;2023-04-25T07:05:27;93384.06;;;23.41;32.28
65359;BME280;52491;45.900;6.346;2023-04-25T07:07:52;93390.97;;;23.42;32.31
65359;BME280;52491;45.900;6.346;2023-04-25T07:10:18;93369.69;;;23.42;32.04
65359;BME280;52491;45.900;6.346;2023-04-25T07:12:44;93388.31;;;23.42;32.35
65359;BME280;52491;45.900;6.346;2023-04-25T07:15:09;93377.69;;;23.42;32.42
65359;BME280;52491;45.900;6.346;2023-04-25T07:17:37;93371.56;;;23.42;32.30
65359;BME280;52491;45.900;6.346;2023-04-25T07:20:03;93376.88;;;23.42;32.26
65359;BME280;52491;45.900;6.346;2023-04-25T07:22:29;93371.81;;;23.40;32.26
65359;BME280;52491;45.900;6.346;2023-04-25T07:24:55;93378.75;;;23.41;32.40
65359;BME280;52491;45.900;6.346;2023-04-25T07:27:20;93377.94;;;23.41;32.43
65359;BME280;52491;45.900;6.346;2023-04-25T07:29:46;93376.34;;;23.40;32.38
65359;BME280;52491;45.900;6.346;2023-04-25T07:32:11;93377.13;;;23.40;32.45
65359;BME280;52491;45.900;6.346;2023-04-25T07:34:38;93391.22;;;23.41;32.60
65359;BME280;52491;45.900;6.346;2023-04-25T07:37:04;93394.72;;;23.41;32.31
65359;BME280;52491;45.900;6.346;2023-04-25T07:39:30;93391.22;;;23.41;32.25
65359;BME280;52491;45.900;6.346;2023-04-25T07:41:56;93395.50;;;23.42;32.45
65359;BME280;52491;45.900;6.346;2023-04-25T07:44:24;93394.72;;;23.41;32.25
65359;BME280;52491;45.900;6.346;2023-04-25T07:46:49;93393.91;;;23.41;32.36
65359;BME280;52491;45.900;6.346;2023-04-25T07:49:15;93390.19;;;23.42;32.42
65359;BME280;52491;45.900;6.346;2023-04-25T07:51:41;93392.84;;;23.42;32.31
65359;BME280;52491;45.900;6.346;2023-04-25T07:54:14;93394.19;;;23.44;32.41
65359;BME280;52491;45.900;6.346;2023-04-25T07:56:43;93396.84;;;23.44;32.36
65359;BME280;52491;45.900;6.346;2023-04-25T07:59:08;93400.81;;;23.42;32.25
65359;BME280;52491;45.900;6.346;2023-04-25T08:01:34;93406.16;;;23.42;32.20
65359;BME280;52491;45.900;6.346;2023-04-25T08:04:00;93412.25;;;23.42;32.16
65359;BME280;52491;45.900;6.346;2023-04-25T08:06:26;93409.59;;;23.42;32.14
65359;BME280;52491;45.900;6.346;2023-04-25T08:08:52;93413.06;;;23.43;32.28
65359;BME280;52491;45.900;6.346;2023-04-25T08:11:17;93413.84;;;23.43;32.28
65359;BME280;52491;45.900;6.346;2023-04-25T08:13:43;93419.44;;;23.42;32.25
65359;BME280;52491;45.900;6.346;2023-04-25T08:16:09;93431.69;;;23.43;32.14
65359;BME280;52491;45.900;6.346;2023-04-25T08:18:34;93440.44;;;23.43;32.19
65359;BME280;52491;45.900;6.346;2023-04-25T08:21:00;93438.88;;;23.42;32.12
65359;BME280;52491;45.900;6.346;2023-04-25T08:23:25;93438.59;;;23.44;32.01
65359;BME280;52491;45.900;6.346;2023-04-25T08:25:51;93439.66;;;23.43;32.33
65359;BME280;52491;45.900;6.346;2023-04-25T08:28:17;93446.06;;;23.42;32.06
65359;BME280;52491;45.900;6.346;2023-04-25T08:30:42;93454.03;;;23.42;32.09
65359;BME280;52491;45.900;6.346;2023-04-25T08:33:08;93457.47;;;23.42;31.97
65359;BME280;52491;45.900;6.346;2023-04-25T08:35:33;93462.00;;;23.42;31.96
65359;BME280;52491;45.900;6.346;2023-04-25T08:37:59;93463.88;;;23.41;32.12
65359;BME280;52491;45.900;6.346;2023-04-25T08:40:27;93459.34;;;23.42;32.16
65359;BME280;52491;45.900;6.346;2023-04-25T08:42:57;93465.47;;;23.42;32.05
65359;BME280;52491;45.900;6.346;2023-04-25T08:45:24;93467.34;;;23.42;32.03
65359;BME280;52491;45.900;6.346;2023-04-25T08:47:52;93471.59;;;23.43;31.71
65359;BME280;52491;45.900;6.346;2023-04-25T08:50:18;93484.88;;;23.43;32.02
65359;BME280;52491;45.900;6.346;2023-04-25T08:52:46;93488.34;;;23.43;31.90
65359;BME280;52491;45.900;6.346;2023-04-25T08:55:13;93486.75;;;23.42;31.97
65359;BME280;52491;45.900;6.346;2023-04-25T08:57:41;93485.66;;;23.43;31.80
65359;BME280;52491;45.900;6.346;2023-04-25T09:00:10;93489.94;;;23.44;31.94
65359;BME280;52491;45.900;6.346;2023-04-25T09:02:37;93498.97;;;23.43;31.84
65359;BME280;52491;45.900;6.346;2023-04-25T09:05:04;93510.41;;;23.44;31.97
65359;BME280;52491;45.900;6.346;2023-04-25T09:07:32;93510.41;;;23.44;31.99
65359;BME280;52491;45.900;6.346;2023-04-25T09:09:58;93509.09;;;23.41;31.94
65359;BME280;52491;45.900;6.346;2023-04-25T09:12:29;93521.59;;;23.41;31.83
65359;BME280;52491;45.900;6.346;2023-04-25T09:15:07;93509.91;;;23.42;32.07
65359;BME280;52491;45.900;6.346;2023-04-25T09:17:33;93516.00;;;23.42;31.97
65359;BME280;52491;45.900;6.346;2023-04-25T09:20:06;93520.53;;;23.42;32.07
65359;BME280;52491;45.900;6.346;2023-04-25T09:22:34;93509.91;;;23.42;31.96
65359;BME280;52491;45.900;6.346;2023-04-25T09:25:03;93514.16;;;23.43;32.10
65359;BME280;52491;45.900;6.346;2023-04-25T09:27:29;93515.47;;;23.45;31.90
65359;BME280;52491;45.900;6.346;2023-04-25T09:29:59;93517.88;;;23.47;31.96
65359;BME280;52491;45.900;6.346;2023-04-25T09:32:27;93516.28;;;23.46;31.90
65359;BME280;52491;45.900;6.346;2023-04-25T09:34:57;93517.88;;;23.47;32.00
65359;BME280;52491;45.900;6.346;2023-04-25T09:37:29;93518.69;;;23.48;31.98
65359;BME280;52491;45.900;6.346;2023-04-25T09:39:59;93520.28;;;23.49;31.94
65359;BME280;52491;45.900;6.346;2023-04-25T09:42:28;93517.59;;;23.49;31.98
65359;BME280;52491;45.900;6.346;2023-04-25T09:44:57;93516.53;;;23.50;32.04
65359;BME280;52491;45.900;6.346;2023-04-25T09:47:26;93526.13;;;23.51;31.88
65359;BME280;52491;45.900;6.346;2023-04-25T09:49:54;93520.81;;;23.51;31.96
65359;BME280;52491;45.900;6.346;2023-04-25T09:52:22;93526.91;;;23.51;31.73
65359;BME280;52491;45.900;6.346;2023-04-25T09:54:49;93512.53;;;23.52;31.82
65359;BME280;52491;45.900;6.346;2023-04-25T09:57:17;93524.00;;;23.53;31.80
65359;BME280;52491;45.900;6.346;2023-04-25T09:59:46;93514.16;;;23.53;31.76
65359;BME280;52491;45.900;6.346;2023-04-25T10:02:13;93510.41;;;23.54;31.75
65359;BME280;52491;45.900;6.346;2023-04-25T10:04:40;93512.84;;;23.56;31.83
65359;BME280;52491;45.900;6.346;2023-04-25T10:07:07;93508.56;;;23.55;31.93
65359;BME280;52491;45.900;6.346;2023-04-25T10:09:37;93510.16;;;23.56;31.62
65359;BME280;52491;45.900;6.346;2023-04-25T10:12:03;93501.38;;;23.55;31.84
65359;BME280;52491;45.900;6.346;2023-04-25T10:14:31;93498.72;;;23.55;31.73
65359;BME280;52491;45.900;6.346;2023-04-25T10:16:58;93506.44;;;23.57;31.80
65359;BME280;52491;45.900;6.346;2023-04-25T10:19:25;93495.78;;;23.57;31.72
65359;BME280;52491;45.900;6.346;2023-04-25T10:24:36;93485.94;;;23.57;31.73
65359;BME280;52491;45.900;6.346;2023-04-25T10:27:03;93478.75;;;23.58;31.74
65359;BME280;52491;45.900;6.346;2023-04-25T10:29:29;93474.25;;;23.58;31.80
65359;BME280;52491;45.900;6.346;2023-04-25T10:31:55;93467.84;;;23.59;31.83
65359;BME280;52491;45.900;6.346;2023-04-25T10:34:40;93465.72;;;23.61;31.74
65359;BME280;52491;45.900;6.346;2023-04-25T10:37:09;93473.72;;;23.61;31.82
65359;BME280;52491;45.900;6.346;2023-04-25T10:39:35;93477.16;;;23.62;31.79
65359;BME280;52491;45.900;6.346;2023-04-25T10:42:02;93473.72;;;23.61;31.73
65359;BME280;52491;45.900;6.346;2023-04-25T10:44:31;93479.84;;;23.62;31.81
65359;BME280;52491;45.900;6.346;2023-04-25T10:46:58;93477.97;;;23.62;31.54
65359;BME280;52491;45.900;6.346;2023-04-25T10:49:41;93477.97;;;23.62;31.78
65359;BME280;52491;45.900;6.346;2023-04-25T10:54:49;93493.13;;;23.62;31.31
65359;BME280;52491;45.900;6.346;2023-04-25T10:57:30;93493.38;;;23.60;31.22
65359;BME280;52491;45.900;6.346;2023-04-25T11:00:11;93489.94;;;23.60;31.49
65359;BME280;52491;45.900;6.346;2023-04-25T11:02:41;93491.00;;;23.59;31.27
65359;BME280;52491;45.900;6.346;2023-04-25T11:05:07;93492.88;;;23.58;31.51
65359;BME280;52491;45.900;6.346;2023-04-25T11:07:48;93490.22;;;23.58;31.39
65359;BME280;52491;45.900;6.346;2023-04-25T11:10:15;93495.00;;;23.56;31.50
65359;BME280;52491;45.900;6.346;2023-04-25T11:12:40;93500.31;;;23.51;30.02
65359;BME280;52491;45.900;6.346;2023-04-25T11:15:07;93503.22;;;23.34;28.81
65359;BME280;52491;45.900;6.346;2023-04-25T11:17:33;93506.97;;;23.28;29.27
65359;BME280;52491;45.900;6.346;2023-04-25T11:19:59;93508.28;;;23.31;29.45
65359;BME280;52491;45.900;6.346;2023-04-25T11:22:27;93508.56;;;23.34;30.10
65359;BME280;52491;45.900;6.346;2023-04-25T11:24:53;93508.81;;;23.38;30.00
65359;BME280;52491;45.900;6.346;2023-04-25T11:27:19;93508.56;;;23.39;30.11
65359;BME280;52491;45.900;6.346;2023-04-25T11:29:46;93502.97;;;23.41;30.42
65359;BME280;52491;45.900;6.346;2023-04-25T11:32:15;93502.72;;;23.42;30.08
65359;BME280;52491;45.900;6.346;2023-04-25T11:34:43;93503.25;;;23.44;30.38
65359;BME280;52491;45.900;6.346;2023-04-25T11:37:10;93497.94;;;23.44;30.58
65359;BME280;52491;45.900;6.346;2023-04-25T11:39:37;93499.50;;;23.45;30.50
65359;BME280;52491;45.900;6.346;2023-04-25T11:42:04;93502.19;;;23.45;30.64
65359;BME280;52491;45.900;6.346;2023-04-25T11:44:31;93495.78;;;23.46;30.73
65359;BME280;52491;45.900;6.346;2023-04-25T11:46:56;93493.94;;;23.47;30.80
65359;BME280;52491;45.900;6.346;2023-04-25T11:49:22;93492.88;;;23.48;30.78
65359;BME280;52491;45.900;6.346;2023-04-25T11:51:50;93492.88;;;23.48;30.65
65359;BME280;52491;45.900;6.346;2023-04-25T11:54:16;93489.13;;;23.49;30.89
65359;BME280;52491;45.900;6.346;2023-04-25T11:56:42;93489.94;;;23.50;31.02
65359;BME280;52491;45.900;6.346;2023-04-25T11:59:08;93494.19;;;23.51;30.91
65359;BME280;52491;45.900;6.346;2023-04-25T12:01:36;93495.78;;;23.52;30.94
65359;BME280;52491;45.900;6.346;2023-04-25T12:04:15;93495.00;;;23.51;30.92
65359;BME280;52491;45.900;6.346;2023-04-25T12:06:43;93487.81;;;23.52;31.13
65359;BME280;52491;45.900;6.346;2023-04-25T12:09:11;93489.41;;;23.53;31.00
65359;BME280;52491;45.900;6.346;2023-04-25T12:11:49;93493.13;;;23.52;30.88
65359;BME280;52491;45.900;6.346;2023-04-25T12:14:23;93489.66;;;23.51;31.20
65359;BME280;52491;45.900;6.346;2023-04-25T12:16:54;93495.78;;;23.52;31.24
65359;BME280;52491;45.900;6.346;2023-04-25T12:19:21;93501.09;;;23.52;31.13
65359;BME280;52491;45.900;6.346;2023-04-25T12:21:48;93501.09;;;23.52;31.16
65359;BME280;52491;45.900;6.346;2023-04-25T12:24:14;93495.78;;;23.52;31.28
65359;BME280;52491;45.900;6.346;2023-04-25T12:26:47;93495.78;;;23.52;31.05
65359;BME280;52491;45.900;6.346;2023-04-25T12:29:17;93495.78;;;23.52;31.26
65359;BME280;52491;45.900;6.346;2023-04-25T12:31:43;93502.97;;;23.51;31.17
65359;BME280;52491;45.900;6.346;2023-04-25T12:34:09;93506.44;;;23.52;31.23
65359;BME280;52491;45.900;6.346;2023-04-25T12:36:34;93504.56;;;23.52;31.23
65359;BME280;52491;45.900;6.346;2023-04-25T12:39:00;93501.09;;;23.52;31.36
65359;BME280;52491;45.900;6.346;2023-04-25T12:41:29;93512.28;;;23.54;31.21
65359;BME280;52491;45.900;6.346;2023-04-25T12:43:55;93501.91;;;23.52;31.35
65359;BME280;52491;45.900;6.346;2023-04-25T12:46:21;93502.44;;;23.54;31.19
65359;BME280;52491;45.900;6.346;2023-04-25T12:48:48;93497.13;;;23.54;31.57
65359;BME280;52491;45.900;6.346;2023-04-25T12:51:14;93489.94;;;23.55;31.25
65359;BME280;52491;45.900;6.346;2023-04-25T12:53:40;93490.72;;;23.55;31.12
65359;BME280;52491;45.900;6.346;2023-04-25T12:56:09;93496.03;;;23.55;31.34
65359;BME280;52491;45.900;6.346;2023-04-25T12:58:34;93495.25;;;23.55;31.19
65359;BME280;52491;45.900;6.346;2023-04-25T13:01:00;93501.66;;;23.54;31.33
65359;BME280;52491;45.900;6.346;2023-04-25T13:03:26;93493.66;;;23.54;31.36